createdAt,value
2022-09-13T00:03:28.704Z,100.00
2022-09-13T00:08:54.272Z,100.00
2022-09-13T00:14:18.749Z,100.00
2022-09-13T00:19:45.567Z,100.00
2022-09-13T00:25:11.273Z,100.00
2022-09-13T00:30:37.212Z,100.00
2022-09-13T00:36:06.926Z,100.00
2022-09-13T00:41:32.587Z,100.00
2022-09-13T00:46:56.772Z,100.00
2022-09-13T00:52:29.446Z,100.00
2022-09-13T00:57:57.252Z,100.00
2022-09-13T01:03:25.842Z,100.00
2022-09-13T01:08:54.642Z,100.00
2022-09-13T01:14:21.822Z,100.00
2022-09-13T01:19:46.400Z,100.00
2022-09-13T01:25:47.556Z,100.00
2022-09-13T01:31:23.506Z,100.00
2022-09-13T01:37:11.657Z,100.00
2022-09-13T01:42:50.099Z,100.00
2022-09-13T01:48:24.312Z,100.00
2022-09-13T01:53:58.011Z,100.00
2022-09-13T01:59:27.227Z,100.00
2022-09-13T02:05:00.946Z,100.00
2022-09-13T02:10:31.540Z,100.00
2022-09-13T02:16:01.676Z,100.00
2022-09-13T02:21:33.173Z,100.00
2022-09-13T02:27:04.417Z,100.00
2022-09-13T02:32:35.280Z,100.00
2022-09-13T02:38:06.096Z,100.00
2022-09-13T02:43:42.010Z,100.00
2022-09-13T02:49:13.218Z,100.00
2022-09-13T02:54:47.009Z,100.00
2022-09-13T03:00:12.464Z,100.00
2022-09-13T03:05:38.021Z,100.00
2022-09-13T03:11:15.567Z,100.00
2022-09-13T03:16:58.682Z,100.00
2022-09-13T03:22:40.355Z,100.00
2022-09-13T03:28:15.645Z,100.00
2022-09-13T03:33:48.436Z,100.00
2022-09-13T03:39:19.962Z,100.00
2022-09-13T05:17:32.402Z,100.00
2022-09-13T05:22:57.070Z,100.00
2022-09-13T05:28:25.664Z,100.00
2022-09-13T05:33:55.960Z,100.00
2022-09-13T05:39:36.299Z,100.00
2022-09-13T05:45:07.960Z,100.00
2022-09-13T05:50:57.671Z,100.00
2022-09-13T05:56:25.580Z,100.00
2022-09-13T06:01:50.232Z,100.00
2022-09-13T06:07:16.094Z,100.00
2022-09-13T06:12:40.783Z,100.00
2022-09-13T06:18:05.909Z,100.00
2022-09-13T06:23:32.127Z,100.00
2022-09-13T06:28:58.931Z,100.00
2022-09-13T06:34:25.973Z,100.00
2022-09-13T06:39:55.533Z,100.00
2022-09-13T06:45:20.230Z,100.00
2022-09-13T06:50:45.627Z,100.00
2022-09-13T06:56:14.031Z,100.00
2022-09-13T07:01:39.787Z,100.00
2022-09-13T07:07:03.981Z,100.00
2022-09-13T07:12:29.516Z,100.00
2022-09-13T07:17:53.357Z,100.00
2022-09-13T07:23:17.992Z,100.00
2022-09-13T07:28:46.342Z,100.00
2022-09-13T07:34:14.594Z,100.00
2022-09-13T07:39:39.688Z,100.00
2022-09-13T07:45:08.820Z,100.00
2022-09-13T07:50:33.648Z,100.00
2022-09-13T07:56:03.792Z,100.00
2022-09-13T08:01:36.044Z,100.00
2022-09-13T08:07:00.915Z,100.00
2022-09-13T08:12:25.062Z,100.00
2022-09-13T08:17:50.989Z,100.00
2022-09-13T08:23:17.258Z,100.00
2022-09-13T08:28:43.389Z,100.00
2022-09-13T08:34:12.647Z,100.00
2022-09-13T08:39:37.855Z,100.00
2022-09-13T08:45:02.846Z,100.00
2022-09-13T08:50:31.989Z,100.00
2022-09-13T08:56:06.154Z,100.00
2022-09-13T09:01:42.943Z,100.00
2022-09-13T09:07:13.897Z,100.00
2022-09-13T09:12:42.724Z,100.00
2022-09-13T09:18:14.663Z,100.00
2022-09-13T09:23:45.805Z,100.00
2022-09-13T09:29:22.934Z,100.00
2022-09-13T09:35:00.638Z,100.00
2022-09-13T09:40:31.547Z,100.00
2022-09-13T09:45:58.390Z,100.00
2022-09-13T09:51:25.846Z,100.00
2022-09-13T09:56:56.144Z,100.00
2022-09-13T10:02:22.523Z,100.00
2022-09-13T10:07:55.251Z,100.00
2022-09-13T10:13:26.442Z,100.00
2022-09-13T10:18:52.749Z,98.05
2022-09-13T10:24:19.093Z,97.71
2022-09-13T10:29:50.217Z,96.89
2022-09-13T10:35:20.238Z,96.60
2022-09-13T10:40:49.477Z,92.97
2022-09-13T10:46:23.176Z,89.90
2022-09-13T10:51:47.188Z,90.97
2022-09-13T10:57:34.275Z,91.61
2022-09-13T11:03:20.977Z,92.65
2022-09-13T11:08:57.440Z,93.32
2022-09-13T11:14:44.827Z,91.19
2022-09-13T11:20:24.378Z,87.42
2022-09-13T11:26:01.251Z,84.85
2022-09-13T11:31:39.886Z,84.54
2022-09-13T11:37:26.212Z,83.46
2022-09-13T11:43:03.311Z,82.80
2022-09-13T11:49:06.841Z,81.33
2022-09-13T11:54:44.237Z,79.74
2022-09-13T12:00:20.642Z,80.41
2022-09-13T12:05:50.282Z,79.27
2022-09-13T12:11:22.940Z,77.82
2022-09-13T12:16:50.478Z,76.59
2022-09-13T12:22:16.927Z,76.94
2022-09-13T12:27:55.347Z,74.40
2022-09-13T12:33:24.357Z,76.17
2022-09-13T12:39:24.260Z,74.62
2022-09-13T12:45:07.096Z,72.81
2022-09-13T12:50:59.994Z,73.65
2022-09-13T12:57:03.224Z,75.06
2022-09-13T13:02:37.145Z,72.98
2022-09-13T13:08:09.230Z,79.36
2022-09-13T13:13:39.919Z,84.85
2022-09-13T13:19:31.165Z,85.97
2022-09-13T13:25:00.323Z,86.97
2022-09-13T13:30:41.578Z,87.65
2022-09-13T13:41:48.275Z,90.33
2022-09-13T13:47:56.964Z,91.31
2022-09-13T13:53:35.216Z,91.93
2022-09-13T13:59:15.011Z,93.43
2022-09-13T14:05:00.139Z,92.87
2022-09-13T14:10:38.655Z,92.41
2022-09-13T14:16:16.032Z,93.29
2022-09-13T14:21:42.837Z,94.24
2022-09-13T14:27:16.138Z,95.20
2022-09-13T14:32:48.913Z,94.65
2022-09-13T14:38:21.027Z,94.63
2022-09-13T14:43:47.549Z,95.51
2022-09-13T14:49:26.088Z,95.55
2022-09-13T14:54:59.385Z,95.46
2022-09-13T15:00:25.853Z,95.95
2022-09-13T15:05:58.477Z,97.60
2022-09-13T15:11:36.742Z,99.54
2022-09-13T15:17:10.655Z,100.00
2022-09-13T15:22:35.918Z,100.00
2022-09-13T15:27:59.917Z,100.00
2022-09-13T15:33:26.628Z,99.14
2022-09-13T15:39:01.805Z,97.86
2022-09-13T15:44:26.696Z,97.74
2022-09-13T15:49:52.801Z,96.15
2022-09-13T15:55:20.088Z,97.71
2022-09-13T16:00:44.357Z,100.00
2022-09-13T16:06:11.215Z,100.00
2022-09-13T16:11:40.354Z,100.00
2022-09-13T16:17:07.514Z,100.00
2022-09-13T16:22:31.578Z,100.00
2022-09-13T16:27:57.038Z,100.00
2022-09-13T16:33:21.387Z,100.00
2022-09-13T16:38:46.886Z,100.00
2022-09-13T16:44:14.160Z,100.00
2022-09-13T16:49:39.317Z,100.00
2022-09-13T16:55:04.057Z,100.00
2022-09-13T17:00:30.203Z,100.00
2022-09-13T17:05:59.312Z,100.00
2022-09-13T17:11:27.187Z,100.00
2022-09-13T17:16:54.911Z,100.00
2022-09-13T17:22:19.091Z,100.00
2022-09-13T17:27:44.467Z,100.00
2022-09-13T17:33:11.082Z,100.00
2022-09-13T17:38:35.657Z,100.00
2022-09-13T17:44:00.203Z,100.00
2022-09-13T17:49:26.212Z,100.00
2022-09-13T17:54:51.553Z,100.00
2022-09-13T18:00:19.719Z,100.00
2022-09-13T18:05:45.832Z,100.00
2022-09-13T18:11:14.172Z,100.00
2022-09-13T18:16:39.175Z,100.00
2022-09-13T18:22:04.566Z,100.00
2022-09-13T18:27:29.577Z,100.00
2022-09-13T18:32:53.904Z,100.00
2022-09-13T18:38:19.914Z,100.00
2022-09-13T18:43:49.658Z,100.00
2022-09-13T18:49:16.340Z,100.00
2022-09-13T18:54:42.277Z,100.00
2022-09-13T19:00:13.516Z,100.00
2022-09-13T19:05:39.730Z,100.00
2022-09-13T19:11:06.599Z,100.00
2022-09-13T19:16:33.933Z,100.00
2022-09-13T19:21:59.785Z,100.00
2022-09-13T19:27:26.184Z,100.00
2022-09-13T19:32:51.328Z,100.00
2022-09-13T19:38:17.821Z,100.00
2022-09-13T19:43:46.186Z,100.00
2022-09-13T19:49:14.060Z,100.00
2022-09-13T19:54:37.854Z,100.00
2022-09-13T20:00:04.032Z,100.00
2022-09-13T20:05:33.831Z,100.00
2022-09-13T20:10:58.902Z,100.00
2022-09-13T20:16:26.922Z,100.00
2022-09-13T20:21:56.500Z,100.00
2022-09-13T20:27:21.531Z,100.00
2022-09-13T20:32:47.898Z,100.00
2022-09-13T20:38:11.764Z,100.00
2022-09-13T20:43:37.438Z,100.00
2022-09-13T20:49:02.620Z,100.00
2022-09-13T20:54:26.844Z,100.00
2022-09-13T20:59:51.573Z,100.00
2022-09-13T21:05:19.764Z,100.00
2022-09-13T21:10:44.306Z,100.00
2022-09-13T21:16:10.654Z,100.00
2022-09-13T21:21:37.805Z,100.00
2022-09-13T21:27:02.089Z,100.00
2022-09-13T21:32:26.163Z,100.00
2022-09-13T21:37:52.819Z,100.00
2022-09-13T21:43:21.359Z,100.00
2022-09-13T21:48:47.323Z,100.00
2022-09-13T21:54:17.221Z,100.00
2022-09-13T21:59:41.589Z,100.00
2022-09-13T22:05:07.239Z,100.00
2022-09-13T22:10:33.021Z,100.00
2022-09-13T22:16:04.772Z,100.00
2022-09-13T22:21:31.889Z,100.00
2022-09-13T22:26:59.275Z,100.00
2022-09-13T22:32:25.750Z,100.00
2022-09-13T22:37:53.541Z,100.00
2022-09-13T22:43:19.864Z,100.00
2022-09-13T22:48:44.751Z,100.00
2022-09-13T22:54:10.079Z,100.00
2022-09-13T22:59:36.500Z,100.00
2022-09-13T23:05:01.233Z,100.00
2022-09-13T23:10:26.062Z,100.00
2022-09-13T23:15:53.608Z,100.00
2022-09-13T23:21:19.228Z,100.00
2022-09-13T23:26:44.944Z,100.00
2022-09-13T23:32:15.546Z,100.00
2022-09-13T23:37:41.399Z,100.00
2022-09-13T23:43:06.290Z,100.00
2022-09-13T23:48:32.294Z,100.00
2022-09-13T23:53:57.878Z,100.00
2022-09-13T23:59:22.242Z,100.00
